Time;durP1;ratioP1;P1;durP2;ratioP2;P2;SDS_P1;SDS_P2;PMS_P1;PMS_P2;Temp;Humidity;BMP_temperature;BMP_pressure;BME280_temperature;BME280_humidity;BME280_pressure;Samples;Min_cycle;Max_cycle;Signal;HPM_P1;HPM_P2
2023/07/20 00:00:06;;;;;;;4.07;3.67;;;;;;;13.05;nan;100329.97;4830836;29;20039;-77
2023/07/20 00:02:34;;;;;;;4.10;3.58;;;;;;;12.96;nan;100330.31;4810655;29;20057;-77
2023/07/20 00:05:01;;;;;;;3.72;3.35;;;;;;;12.95;nan;100332.09;4805341;29;20498;-77
2023/07/20 00:07:28;;;;;;;4.50;4.10;;;;;;;12.95;nan;100334.75;4809184;29;20039;-77
2023/07/20 00:09:55;;;;;;;4.55;3.58;;;;;;;12.92;nan;100329.53;4833399;29;20519;-77
2023/07/20 00:12:23;;;;;;;5.18;3.60;;;;;;;12.89;nan;100334.97;4816595;29;20050;-77
2023/07/20 00:14:53;;;;;;;4.25;3.85;;;;;;;12.92;nan;100329.53;4811527;29;20035;-77
2023/07/20 00:17:20;;;;;;;4.70;3.63;;;;;;;12.96;nan;100338.28;4800612;29;20043;-77
2023/07/20 00:19:47;;;;;;;6.43;4.25;;;;;;;12.98;nan;100333.78;4797393;29;20057;-77
2023/07/20 00:22:14;;;;;;;4.22;3.83;;;;;;;12.93;nan;100333.06;4831857;29;20046;-78
2023/07/20 00:24:41;;;;;;;4.40;4.00;;;;;;;12.87;nan;100325.34;4807570;29;20422;-78
2023/07/20 00:27:08;;;;;;;3.92;3.53;;;;;;;12.92;nan;100329.53;4824906;29;20035;-76
2023/07/20 00:29:35;;;;;;;4.85;3.90;;;;;;;12.84;nan;100328.94;4801998;29;20055;-78
2023/07/20 00:32:04;;;;;;;3.92;3.33;;;;;;;12.93;nan;100330.41;4809118;29;20748;-78
2023/07/20 00:34:32;;;;;;;5.10;3.75;;;;;;;12.94;nan;100333.00;4792040;29;20044;-78
2023/07/20 00:36:59;;;;;;;4.60;4.22;;;;;;;12.93;nan;100336.56;4823474;29;20417;-78
2023/07/20 00:39:26;;;;;;;4.90;4.10;;;;;;;12.91;nan;100338.41;4827310;29;20047;-78
2023/07/20 00:41:53;;;;;;;4.38;3.70;;;;;;;12.99;nan;100345.25;4830327;29;20049;-77
2023/07/20 00:44:20;;;;;;;4.55;3.83;;;;;;;13.03;nan;100345.09;4801416;29;20047;-78
2023/07/20 00:46:47;;;;;;;4.53;3.83;;;;;;;13.09;nan;100342.19;4765646;29;20056;-78
2023/07/20 00:49:16;;;;;;;5.07;3.88;;;;;;;13.12;nan;100346.56;4784578;29;20047;-78
2023/07/20 00:51:43;;;;;;;4.15;3.60;;;;;;;13.12;nan;100341.25;4813314;29;20038;-78
2023/07/20 00:54:10;;;;;;;4.90;3.60;;;;;;;13.22;nan;100342.66;4830287;29;20069;-78
2023/07/20 00:56:37;;;;;;;4.20;3.80;;;;;;;13.27;nan;100340.69;4806666;29;20065;-78
2023/07/20 00:59:04;;;;;;;4.70;3.88;;;;;;;13.37;nan;100328.84;4823417;29;20496;-77
2023/07/20 01:01:31;;;;;;;4.82;3.92;;;;;;;13.35;nan;100322.72;4828893;29;20053;-79
2023/07/20 01:03:58;;;;;;;4.63;3.92;;;;;;;13.35;nan;100320.06;4824863;29;20039;-77
2023/07/20 01:06:31;;;;;;;4.30;3.90;;;;;;;13.39;nan;100321.69;4827960;29;20043;-78
2023/07/20 01:09:04;;;;;;;3.80;3.50;;;;;;;13.38;nan;100327.91;4802521;29;20053;-77
2023/07/20 01:11:59;;;;;;;4.07;3.67;;;;;;;13.48;nan;100323.13;4814236;29;20043;-77
2023/07/20 01:14:26;;;;;;;5.18;3.85;;;;;;;13.58;nan;100329.81;4791455;29;20043;-77
2023/07/20 01:16:53;;;;;;;5.53;4.35;;;;;;;13.53;nan;100322.00;4806289;29;20043;-77
2023/07/20 01:19:20;;;;;;;4.43;4.03;;;;;;;13.47;nan;100327.56;4812624;29;20050;-78
2023/07/20 01:22:00;;;;;;;4.30;3.90;;;;;;;13.48;nan;100326.66;4830196;29;20656;-77
2023/07/20 01:24:45;;;;;;;4.82;4.30;;;;;;;13.59;nan;100330.69;4800551;29;20039;-77
2023/07/20 01:27:50;;;;;;;5.25;4.75;;;;;;;13.55;nan;100324.63;4822821;29;20047;-80
2023/07/20 01:30:48;;;;;;;6.38;5.30;;;;;;;13.58;nan;100331.59;4819775;29;20031;-80
2023/07/20 01:33:16;;;;;;;5.53;4.38;;;;;;;13.51;nan;100330.97;4805275;29;20395;-79
2023/07/20 01:35:47;;;;;;;4.40;4.00;;;;;;;13.65;nan;100330.44;4794603;29;20052;-79
2023/07/20 01:38:15;;;;;;;4.22;3.83;;;;;;;13.70;nan;100329.31;4797380;29;20055;-80
2023/07/20 01:40:42;;;;;;;4.35;3.95;;;;;;;13.60;nan;100322.66;4802794;29;20035;-79
2023/07/20 01:43:09;;;;;;;5.10;4.07;;;;;;;13.59;nan;100331.53;4823123;29;20047;-80
2023/07/20 01:45:36;;;;;;;8.68;4.95;;;;;;;13.62;nan;100325.25;4812613;29;20049;-79
2023/07/20 01:48:04;;;;;;;5.10;4.35;;;;;;;13.63;nan;100332.31;4823957;29;20051;-80
2023/07/20 01:50:31;;;;;;;6.72;4.68;;;;;;;13.60;nan;100330.63;4786739;29;20043;-80
2023/07/20 01:52:58;;;;;;;5.80;4.50;;;;;;;13.64;nan;100323.41;4801959;29;20087;-80
2023/07/20 01:55:25;;;;;;;6.13;5.53;;;;;;;13.67;nan;100329.47;4800815;29;20035;-80
2023/07/20 01:57:53;;;;;;;8.93;5.82;;;;;;;13.74;nan;100335.41;4799078;29;20046;-80
2023/07/20 02:00:23;;;;;;;6.82;5.93;;;;;;;13.80;nan;100336.03;4792517;29;20411;-80
2023/07/20 02:02:51;;;;;;;7.10;6.18;;;;;;;13.85;nan;100341.16;4822466;29;20371;-80
2023/07/20 02:05:18;;;;;;;9.15;6.88;;;;;;;13.84;nan;100335.91;4784963;29;20043;-80
2023/07/20 02:07:45;;;;;;;7.85;6.03;;;;;;;13.80;nan;100329.88;4782669;29;20517;-79
2023/07/20 02:10:12;;;;;;;8.43;6.85;;;;;;;13.75;nan;100332.69;4829665;29;20697;-78
2023/07/20 02:12:39;;;;;;;7.55;5.80;;;;;;;13.80;nan;100335.19;4814003;29;20049;-79
2023/07/20 02:15:06;;;;;;;6.78;5.80;;;;;;;13.77;nan;100343.25;4792665;29;20047;-80
2023/07/20 02:17:36;;;;;;;7.55;5.95;;;;;;;13.79;nan;100341.41;4796027;29;20655;-79
2023/07/20 02:20:04;;;;;;;6.65;5.55;;;;;;;13.80;nan;100343.16;4823973;29;20046;-79
2023/07/20 02:22:31;;;;;;;6.80;5.95;;;;;;;13.87;nan;100339.28;4812711;29;20517;-79
2023/07/20 02:24:58;;;;;;;7.38;5.75;;;;;;;13.91;nan;100327.66;4807161;29;20529;-79
2023/07/20 02:27:25;;;;;;;7.03;6.30;;;;;;;13.83;nan;100335.03;4789733;29;20046;-79
2023/07/20 02:29:52;;;;;;;7.43;5.72;;;;;;;13.89;nan;100331.28;4803817;29;20580;-79
2023/07/20 02:32:19;;;;;;;7.03;6.07;;;;;;;13.86;nan;100332.25;4818391;29;20042;-79
2023/07/20 02:34:46;;;;;;;8.25;6.07;;;;;;;13.95;nan;100334.56;4788826;29;20045;-79
2023/07/20 02:37:13;;;;;;;6.72;5.18;;;;;;;13.98;nan;100341.56;4818073;29;20047;-79
2023/07/20 02:39:41;;;;;;;6.60;5.65;;;;;;;13.89;nan;100347.22;4833289;29;20042;-80
2023/07/20 02:42:08;;;;;;;7.43;5.47;;;;;;;13.90;nan;100346.31;4804352;29;20054;-79
2023/07/20 02:44:35;;;;;;;6.00;5.40;;;;;;;13.89;nan;100344.56;4828567;29;20039;-79
2023/07/20 02:47:02;;;;;;;7.00;6.28;;;;;;;13.94;nan;100353.22;4817447;29;20063;-79
2023/07/20 02:49:29;;;;;;;6.25;5.40;;;;;;;13.92;nan;100350.63;4809811;29;20049;-79
2023/07/20 02:51:56;;;;;;;6.78;6.07;;;;;;;13.95;nan;100342.50;4784789;29;20758;-79
2023/07/20 02:54:23;;;;;;;6.70;5.65;;;;;;;13.94;nan;100350.56;4804759;29;20045;-79
2023/07/20 02:56:50;;;;;;;6.97;6.30;;;;;;;13.96;nan;100354.03;4814325;29;20041;-79
2023/07/20 02:59:17;;;;;;;6.65;5.90;;;;;;;13.92;nan;100358.59;4831766;29;20537;-79
2023/07/20 03:01:44;;;;;;;7.07;5.90;;;;;;;13.94;nan;100351.41;4813973;29;20407;-79
2023/07/20 03:04:11;;;;;;;7.70;6.28;;;;;;;13.94;nan;100353.22;4805546;29;20046;-80
2023/07/20 03:06:38;;;;;;;8.38;7.15;;;;;;;13.96;nan;100344.28;4818561;29;20051;-80
2023/07/20 03:09:06;;;;;;;7.03;6.22;;;;;;;14.02;nan;100351.97;4828037;29;20047;-79
2023/07/20 03:11:34;;;;;;;6.57;5.55;;;;;;;14.03;nan;100358.16;4818530;29;20042;-79
2023/07/20 03:14:01;;;;;;;8.70;6.80;;;;;;;14.06;nan;100374.00;4834029;29;20042;-79
2023/07/20 03:16:28;;;;;;;6.80;6.10;;;;;;;14.05;nan;100365.16;4789465;29;20047;-80
2023/07/20 03:18:55;;;;;;;8.10;6.47;;;;;;;14.11;nan;100374.66;4789117;29;20045;-79
2023/07/20 03:21:22;;;;;;;7.53;6.75;;;;;;;14.13;nan;100364.00;4807774;29;20053;-80
2023/07/20 03:23:49;;;;;;;7.90;7.00;;;;;;;14.09;nan;100364.09;4807889;29;20510;-79
2023/07/20 03:26:18;;;;;;;7.70;6.75;;;;;;;14.15;nan;100368.31;4834117;29;20050;-79
2023/07/20 03:28:45;;;;;;;7.95;6.88;;;;;;;14.13;nan;100372.81;4818689;29;20046;-79
2023/07/20 03:31:12;;;;;;;7.40;6.45;;;;;;;14.11;nan;100368.47;4788467;29;20057;-79
2023/07/20 03:33:39;;;;;;;9.23;7.00;;;;;;;14.13;nan;100372.81;4810692;29;20053;-79
2023/07/20 03:36:06;;;;;;;6.43;5.82;;;;;;;14.09;nan;100369.41;4824977;29;20039;-80
2023/07/20 03:38:34;;;;;;;8.00;6.85;;;;;;;14.11;nan;100365.81;4827537;29;20046;-79
2023/07/20 03:41:00;;;;;;;6.63;5.78;;;;;;;14.09;nan;100366.75;4800552;29;20057;-79
2023/07/20 03:43:28;;;;;;;7.22;6.40;;;;;;;14.09;nan;100376.50;4805767;29;20046;-78
2023/07/20 03:45:56;;;;;;;7.78;6.47;;;;;;;14.09;nan;100380.03;4788587;29;20039;-80
2023/07/20 03:48:24;;;;;;;6.20;5.57;;;;;;;14.04;nan;100374.06;4813230;29;20043;-79
2023/07/20 03:50:52;;;;;;;8.77;6.13;;;;;;;14.05;nan;100375.78;4801201;29;20042;-80
2023/07/20 03:53:19;;;;;;;6.80;6.05;;;;;;;14.06;nan;100374.00;4813735;29;20062;-79
2023/07/20 03:55:47;;;;;;;7.10;6.40;;;;;;;14.06;nan;100381.97;4810056;29;20035;-80
2023/07/20 03:58:15;;;;;;;7.22;5.45;;;;;;;14.08;nan;100380.97;4804867;29;20674;-79
2023/07/20 04:00:46;;;;;;;7.72;6.80;;;;;;;14.15;nan;100380.72;4803012;29;20046;-80
2023/07/20 04:03:14;;;;;;;9.55;6.82;;;;;;;14.19;nan;100377.00;4807349;29;20057;-80
2023/07/20 04:05:42;;;;;;;7.65;6.55;;;;;;;14.23;nan;100376.84;4786723;29;20061;-79
2023/07/20 04:08:10;;;;;;;8.57;6.97;;;;;;;14.31;nan;100379.19;4818164;29;20047;-78
2023/07/20 04:10:37;;;;;;;6.78;5.95;;;;;;;14.40;nan;100372.66;4804052;29;20043;-78
2023/07/20 04:13:04;;;;;;;8.13;6.18;;;;;;;14.46;nan;100383.03;4831854;29;20050;-79
2023/07/20 04:15:31;;;;;;;8.20;6.43;;;;;;;14.54;nan;100381.78;4825337;29;20037;-79
2023/07/20 04:17:58;;;;;;;7.28;5.97;;;;;;;14.56;nan;100382.63;4813083;29;20423;-79
2023/07/20 04:20:25;;;;;;;8.63;6.38;;;;;;;14.61;nan;100380.63;4821020;29;20039;-79
2023/07/20 04:22:53;;;;;;;6.10;5.50;;;;;;;14.68;nan;100375.91;4803609;29;20038;-79
2023/07/20 04:25:20;;;;;;;6.53;5.93;;;;;;;14.78;nan;100369.28;4799536;29;20043;-79
2023/07/20 04:27:47;;;;;;;6.88;5.85;;;;;;;14.89;nan;100372.34;4834297;29;20125;-80
2023/07/20 04:30:19;;;;;;;7.05;6.07;;;;;;;14.95;nan;100373.00;4831036;29;20042;-79
2023/07/20 04:32:47;;;;;;;6.50;5.72;;;;;;;15.02;nan;100377.13;4820825;29;20046;-79
2023/07/20 04:35:25;;;;;;;6.75;5.72;;;;;;;15.08;nan;100374.22;4831789;29;20047;-79
2023/07/20 04:37:52;;;;;;;8.10;6.15;;;;;;;15.11;nan;100382.06;4816133;29;20039;-79
2023/07/20 04:40:19;;;;;;;6.03;5.18;;;;;;;15.13;nan;100388.16;4828523;29;20129;-79
2023/07/20 04:42:46;;;;;;;6.63;5.93;;;;;;;15.16;nan;100391.56;4808243;29;20043;-79
2023/07/20 04:45:13;;;;;;;6.90;5.60;;;;;;;15.14;nan;100389.94;4808796;29;20054;-79
2023/07/20 04:47:40;;;;;;;7.05;5.90;;;;;;;15.16;nan;100390.72;4829479;29;20043;-79
2023/07/20 04:50:07;;;;;;;6.68;5.55;;;;;;;15.20;nan;100385.19;4827715;29;20107;-79
2023/07/20 04:52:34;;;;;;;6.75;5.93;;;;;;;15.25;nan;100394.78;4833985;29;20053;-78
2023/07/20 04:55:09;;;;;;;5.75;5.15;;;;;;;15.30;nan;100393.66;4826835;29;20045;-79
2023/07/20 04:57:35;;;;;;;6.65;5.97;;;;;;;15.39;nan;100393.25;4804860;29;20049;-79
2023/07/20 05:00:03;;;;;;;6.57;5.68;;;;;;;15.45;nan;100395.59;4818815;29;20043;-79
2023/07/20 05:02:30;;;;;;;7.10;5.97;;;;;;;15.55;nan;100389.84;4803764;29;20047;-79
2023/07/20 05:04:57;;;;;;;8.93;5.47;;;;;;;15.57;nan;100385.34;4832895;29;20601;-78
2023/07/20 05:07:24;;;;;;;6.80;6.00;;;;;;;15.74;nan;100385.47;4814198;29;20035;-79
2023/07/20 05:09:51;;;;;;;6.25;5.50;;;;;;;15.81;nan;100391.38;4805630;29;20042;-79
2023/07/20 05:12:18;;;;;;;6.65;5.10;;;;;;;15.88;nan;100390.16;4804075;29;20045;-79
2023/07/20 05:14:46;;;;;;;6.60;5.50;;;;;;;15.91;nan;100392.69;4807177;29;20047;-78
2023/07/20 05:17:13;;;;;;;6.45;5.85;;;;;;;15.91;nan;100392.69;4809167;29;20058;-79
2023/07/20 05:19:40;;;;;;;6.88;6.13;;;;;;;16.00;nan;100395.78;4816869;29;20423;-78
2023/07/20 05:22:11;;;;;;;7.57;6.72;;;;;;;16.02;nan;100395.69;4824707;29;20099;-79
2023/07/20 05:24:38;;;;;;;6.90;6.03;;;;;;;15.99;nan;100395.84;4804258;29;20042;-79
2023/07/20 05:27:05;;;;;;;5.85;5.18;;;;;;;15.93;nan;100402.31;4788367;29;20043;-79
2023/07/20 05:29:33;;;;;;;7.20;6.00;;;;;;;15.98;nan;100402.13;4821623;29;20054;-79
2023/07/20 05:32:00;;;;;;;6.90;6.03;;;;;;;16.15;nan;100398.66;4816823;29;20061;-79
2023/07/20 05:34:27;;;;;;;8.00;6.15;;;;;;;16.33;nan;100398.63;4808567;29;20053;-78
2023/07/20 05:36:55;;;;;;;7.50;5.85;;;;;;;16.44;nan;100405.25;4824153;29;21179;-79
2023/07/20 05:39:22;;;;;;;8.02;5.88;;;;;;;16.38;nan;100409.06;4801144;29;20049;-79
2023/07/20 05:41:49;;;;;;;7.03;5.60;;;;;;;16.43;nan;100398.19;4808614;29;20045;-79
2023/07/20 05:44:16;;;;;;;8.18;6.38;;;;;;;16.43;nan;100393.72;4810236;29;20513;-79
2023/07/20 05:46:43;;;;;;;8.73;6.72;;;;;;;16.41;nan;100400.06;4811090;29;20043;-79
2023/07/20 05:49:22;;;;;;;7.88;6.10;;;;;;;16.47;nan;100399.75;4811605;29;20059;-78
2023/07/20 05:51:49;;;;;;;6.50;5.47;;;;;;;16.45;nan;100398.97;4802536;29;20434;-78
2023/07/20 05:54:16;;;;;;;6.45;5.35;;;;;;;16.47;nan;100407.75;4830163;29;20049;-78
2023/07/20 05:56:43;;;;;;;7.40;5.65;;;;;;;16.51;nan;100399.53;4830364;29;20038;-78
2023/07/20 05:59:10;;;;;;;6.60;5.60;;;;;;;16.51;nan;100407.53;4803194;29;20531;-78
2023/07/20 06:01:37;;;;;;;6.32;5.50;;;;;;;16.53;nan;100412.78;4811826;29;20418;-78
2023/07/20 06:04:04;;;;;;;7.85;6.25;;;;;;;16.53;nan;100410.13;4768751;29;20443;-78
2023/07/20 06:06:31;;;;;;;7.60;5.90;;;;;;;16.64;nan;100417.59;4801776;29;20061;-78
2023/07/20 06:08:58;;;;;;;6.07;5.38;;;;;;;16.64;nan;100420.25;4775838;29;20042;-80
2023/07/20 06:11:25;;;;;;;5.82;4.85;;;;;;;16.63;nan;100411.41;4803118;29;20057;-78
2023/07/20 06:13:52;;;;;;;5.95;5.13;;;;;;;16.69;nan;100426.28;4802561;29;20042;-79
2023/07/20 06:16:19;;;;;;;8.45;5.38;;;;;;;16.84;nan;100420.19;4801277;29;20043;-78
2023/07/20 06:18:46;;;;;;;5.47;4.97;;;;;;;16.83;nan;100427.34;4827754;29;20055;-79
2023/07/20 06:21:16;;;;;;;5.15;4.65;;;;;;;16.81;nan;100423.84;4800248;29;20099;-78
2023/07/20 06:23:43;;;;;;;7.65;5.35;;;;;;;16.78;nan;100428.50;4828882;29;20054;-78
2023/07/20 06:26:10;;;;;;;6.13;5.53;;;;;;;16.68;nan;100430.72;4797893;29;20055;-79
2023/07/20 06:28:37;;;;;;;5.53;4.90;;;;;;;16.60;nan;100432.91;4804401;29;20061;-79
2023/07/20 06:31:04;;;;;;;6.20;4.95;;;;;;;16.63;nan;100429.22;4832637;29;20042;-78
2023/07/20 06:33:31;;;;;;;6.18;5.38;;;;;;;17.09;nan;100427.81;4804533;29;20395;-78
2023/07/20 06:35:58;;;;;;;4.50;3.90;;;;;;;17.63;nan;100428.53;4799155;29;20051;-79
2023/07/20 06:38:29;;;;;;;5.32;3.75;;;;;;;18.16;nan;100430.13;4822799;29;20047;-79
2023/07/20 06:40:58;;;;;;;4.18;3.38;;;;;;;18.50;nan;100424.63;4792976;29;20094;-79
2023/07/20 06:43:45;;;;;;;5.40;3.80;;;;;;;18.84;nan;100417.38;4807654;29;20057;-79
2023/07/20 06:46:15;;;;;;;3.35;3.03;;;;;;;19.19;nan;100425.97;4800872;29;20052;-79
2023/07/20 06:48:42;;;;;;;3.28;2.90;;;;;;;19.44;nan;100429.88;4826574;29;20049;-79
2023/07/20 06:51:12;;;;;;;2.85;2.50;;;;;;;19.69;nan;100427.44;4804991;29;20557;-78
2023/07/20 06:53:39;;;;;;;2.83;2.53;;;;;;;19.90;nan;100425.22;4780413;29;20055;-79
2023/07/20 06:56:06;;;;;;;2.83;2.55;;;;;;;20.09;nan;100425.78;4815756;29;20043;-79
2023/07/20 06:58:33;;;;;;;3.10;2.50;;;;;;;20.31;nan;100413.69;4798354;29;20051;-78
2023/07/20 07:01:08;;;;;;;2.95;2.30;;;;;;;20.51;nan;100421.31;4802696;29;20047;-80
2023/07/20 07:03:36;;;;;;;2.50;2.10;;;;;;;20.39;nan;100427.47;4814147;29;20042;-81
2023/07/20 07:06:03;;;;;;;2.13;1.92;;;;;;;20.47;nan;100425.16;4785684;29;20051;-81
2023/07/20 07:08:30;;;;;;;3.72;2.13;;;;;;;20.48;nan;100422.38;4813368;29;20454;-83
2023/07/20 07:10:57;;;;;;;2.33;1.80;;;;;;;20.24;nan;100426.63;4811398;29;20039;-80
2023/07/20 07:13:25;;;;;;;1.40;1.30;;;;;;;19.99;nan;100431.81;4816398;29;20047;-82
2023/07/20 07:15:52;;;;;;;1.90;1.60;;;;;;;19.94;nan;100437.50;4815712;29;20035;-82
2023/07/20 07:18:20;;;;;;;1.50;1.40;;;;;;;19.80;nan;100426.75;4814484;29;20118;-79
2023/07/20 07:20:52;;;;;;;2.10;1.50;;;;;;;19.79;nan;100433.09;4806713;29;20043;-79
2023/07/20 07:23:19;;;;;;;2.20;1.83;;;;;;;19.66;nan;100436.50;4808604;29;20046;-80
2023/07/20 07:25:47;;;;;;;2.78;1.80;;;;;;;19.58;nan;100441.47;4809143;29;20122;-81
2023/07/20 07:28:15;;;;;;;2.08;1.40;;;;;;;19.40;nan;100453.28;4811200;29;20045;-80
2023/07/20 07:30:42;;;;;;;1.60;1.50;;;;;;;19.38;nan;100453.38;4817278;29;20462;-79
2023/07/20 07:33:09;;;;;;;2.08;1.75;;;;;;;19.27;nan;100452.31;4823327;29;20103;-80
2023/07/20 07:35:37;;;;;;;1.58;1.35;;;;;;;19.17;nan;100446.66;4808666;29;20107;-77
2023/07/20 07:38:06;;;;;;;2.28;1.35;;;;;;;19.05;nan;100458.94;4832735;29;20100;-80
2023/07/20 07:40:50;;;;;;;2.38;1.50;;;;;;;19.01;nan;100457.41;4813180;29;20158;-80
2023/07/20 07:43:17;;;;;;;2.15;1.40;;;;;;;19.16;nan;100446.72;4795185;29;20094;-81
2023/07/20 07:45:44;;;;;;;2.47;1.35;;;;;;;19.29;nan;100455.75;4835107;29;20100;-80
2023/07/20 07:48:12;;;;;;;2.35;1.20;;;;;;;19.13;nan;100445.94;4819597;29;20043;-79
2023/07/20 07:50:40;;;;;;;1.67;1.17;;;;;;;19.49;nan;100451.88;4808865;29;20110;-80
2023/07/20 07:53:08;;;;;;;1.25;1.10;;;;;;;19.88;nan;100445.91;4832455;29;20126;-78
2023/07/20 07:55:35;;;;;;;1.73;1.20;;;;;;;20.10;nan;100448.97;4814875;29;20111;-80
2023/07/20 07:58:02;;;;;;;0.95;0.95;;;;;;;20.14;nan;100458.53;4801754;29;20145;-81
2023/07/20 08:00:29;;;;;;;1.40;1.30;;;;;;;20.19;nan;100447.53;4802861;29;20259;-80
2023/07/20 08:02:56;;;;;;;1.30;1.20;;;;;;;20.18;nan;100459.22;4808487;29;20039;-80
2023/07/20 08:05:24;;;;;;;1.50;1.40;;;;;;;20.14;nan;100465.72;4794037;29;20126;-80
2023/07/20 08:07:51;;;;;;;1.10;0.98;;;;;;;20.01;nan;100454.91;4834114;29;20048;-81
2023/07/20 08:10:18;;;;;;;1.60;1.08;;;;;;;19.96;nan;100457.03;4806717;29;20142;-80
2023/07/20 08:12:45;;;;;;;1.83;1.20;;;;;;;20.07;nan;100454.50;4806493;29;20047;-79
2023/07/20 08:15:14;;;;;;;0.88;0.88;;;;;;;20.38;nan;100452.56;4802446;29;20046;-80
2023/07/20 08:17:42;;;;;;;1.35;1.10;;;;;;;20.24;nan;100467.72;4835523;29;20094;-78
2023/07/20 08:20:12;;;;;;;1.00;0.90;;;;;;;20.27;nan;100457.78;4809715;29;20110;-79
2023/07/20 08:22:39;;;;;;;1.98;1.30;;;;;;;20.35;nan;100468.88;4818902;29;20118;-79
2023/07/20 08:25:07;;;;;;;1.20;1.00;;;;;;;20.35;nan;100460.81;4798375;29;20182;-79
2023/07/20 08:27:34;;;;;;;1.13;0.93;;;;;;;20.18;nan;100452.03;4820875;29;20103;-79
2023/07/20 08:30:01;;;;;;;1.30;1.00;;;;;;;20.06;nan;100455.47;4820265;29;20147;-79
2023/07/20 08:32:28;;;;;;;1.40;1.17;;;;;;;20.04;nan;100456.53;4837767;29;20131;-79
2023/07/20 08:34:55;;;;;;;2.03;1.20;;;;;;;19.94;nan;100469.66;4812765;29;20051;-80
2023/07/20 08:37:22;;;;;;;1.00;0.90;;;;;;;19.77;nan;100461.81;4806582;29;20109;-80
2023/07/20 08:39:49;;;;;;;1.13;1.02;;;;;;;19.95;nan;100457.97;4809039;29;20030;-79
2023/07/20 08:42:16;;;;;;;0.90;0.90;;;;;;;19.99;nan;100448.78;4815913;29;20473;-79
2023/07/20 08:44:45;;;;;;;1.35;1.20;;;;;;;20.16;nan;100458.44;4838118;29;20574;-79
2023/07/20 08:47:13;;;;;;;1.00;0.90;;;;;;;19.95;nan;100448.13;4787269;29;20045;-79
2023/07/20 08:49:41;;;;;;;1.38;1.05;;;;;;;19.80;nan;100454.44;4836227;29;20042;-79
2023/07/20 08:52:08;;;;;;;1.60;1.50;;;;;;;19.93;nan;100459.91;4819007;29;20125;-79
2023/07/20 08:54:38;;;;;;;2.40;1.30;;;;;;;19.90;nan;100460.94;4820918;29;20138;-79
2023/07/20 08:57:05;;;;;;;1.42;1.33;;;;;;;20.02;nan;100453.97;4802562;29;20165;-80
2023/07/20 08:59:34;;;;;;;1.70;1.33;;;;;;;20.26;nan;100459.56;4791445;29;20049;-80
2023/07/20 09:02:02;;;;;;;1.35;1.25;;;;;;;20.36;nan;100463.41;4807279;29;20051;-80
2023/07/20 09:04:30;;;;;;;1.48;1.27;;;;;;;20.33;nan;100462.72;4837238;29;20110;-79
2023/07/20 09:06:57;;;;;;;1.63;1.50;;;;;;;20.42;nan;100462.13;4833251;29;20035;-79
2023/07/20 09:09:24;;;;;;;2.38;1.42;;;;;;;20.52;nan;100457.94;4822064;29;20119;-79
2023/07/20 09:11:51;;;;;;;1.92;1.30;;;;;;;20.82;nan;100456.88;4791221;29;20043;-79
2023/07/20 09:14:18;;;;;;;1.55;1.42;;;;;;;20.89;nan;100463.56;4837059;29;20119;-80
2023/07/20 09:16:54;;;;;;;1.42;1.30;;;;;;;20.91;nan;100462.50;4834434;29;20049;-79
2023/07/20 09:19:22;;;;;;;1.83;1.70;;;;;;;20.91;nan;100464.31;4812558;29;20110;-80
2023/07/20 09:21:50;;;;;;;2.72;1.85;;;;;;;20.82;nan;100462.25;4805783;29;20039;-80
2023/07/20 09:24:19;;;;;;;1.50;1.40;;;;;;;20.62;nan;100469.81;4809110;29;20054;-79
2023/07/20 09:26:48;;;;;;;2.47;1.60;;;;;;;20.43;nan;100461.16;4835845;29;20039;-80
2023/07/20 09:29:18;;;;;;;1.35;1.25;;;;;;;20.27;nan;100473.88;4791889;29;20057;-80
2023/07/20 09:32:04;;;;;;;1.90;1.27;;;;;;;19.82;nan;100475.78;4790424;29;20134;-79
2023/07/20 09:34:31;;;;;;;2.38;1.40;;;;;;;19.75;nan;100480.63;4808331;29;20114;-79
2023/07/20 09:37:01;;;;;;;2.17;1.60;;;;;;;19.72;nan;100486.19;4800937;29;20418;-79
2023/07/20 09:39:29;;;;;;;2.08;1.52;;;;;;;19.63;nan;100479.59;4807678;29;20130;-78
2023/07/20 09:42:01;;;;;;;2.38;1.40;;;;;;;19.49;nan;100484.88;4818742;29;20782;-80
2023/07/20 09:44:31;;;;;;;1.65;1.55;;;;;;;19.50;nan;100483.06;4801584;29;20057;-78
2023/07/20 09:47:03;;;;;;;2.08;1.40;;;;;;;19.65;nan;100477.66;4803929;29;20058;-80
2023/07/20 09:49:30;;;;;;;1.42;1.30;;;;;;;19.71;nan;100483.63;4802848;29;20087;-79
2023/07/20 09:52:17;;;;;;;1.65;1.50;;;;;;;19.67;nan;100482.94;4827375;29;20069;-79
2023/07/20 09:55:05;;;;;;;1.75;1.40;;;;;;;19.80;nan;100485.72;4808315;29;20094;-79
2023/07/20 09:57:34;;;;;;;3.60;1.42;;;;;;;19.70;nan;100484.59;4803920;29;20053;-80
2023/07/20 10:00:07;;;;;;;1.60;1.50;;;;;;;19.86;nan;100480.00;4824767;29;20051;-79
2023/07/20 10:02:42;;;;;;;1.80;1.50;;;;;;;19.91;nan;100480.56;4810359;29;20053;-80
2023/07/20 10:05:11;;;;;;;2.50;1.45;;;;;;;20.02;nan;100472.72;4832111;29;20476;-80
2023/07/20 10:07:43;;;;;;;2.17;1.55;;;;;;;20.16;nan;100479.88;4836446;29;20050;-81
2023/07/20 10:10:10;;;;;;;2.30;1.50;;;;;;;20.34;nan;100477.84;4804826;29;20047;-80
2023/07/20 10:12:39;;;;;;;1.83;1.50;;;;;;;20.57;nan;100473.75;4811619;29;20043;-79
2023/07/20 10:15:20;;;;;;;3.83;3.53;;;;;;;20.89;nan;100477.88;4830836;29;20051;-81
2023/07/20 10:18:11;;;;;;;2.58;2.35;;;;;;;21.19;nan;100488.41;4826377;29;20081;-79
2023/07/20 10:20:41;;;;;;;1.50;1.40;;;;;;;21.19;nan;100471.38;4818380;29;20544;-80
2023/07/20 10:23:31;;;;;;;2.78;2.53;;;;;;;21.40;nan;100461.91;4821769;29;20050;-80
2023/07/20 10:25:58;;;;;;;2.15;1.80;;;;;;;21.81;nan;100467.09;4808248;29;20178;-79
2023/07/20 10:28:27;;;;;;;2.75;2.17;;;;;;;22.07;nan;100464.41;4779778;29;20133;-80
2023/07/20 10:30:54;;;;;;;3.13;2.33;;;;;;;22.12;nan;100471.22;4813321;29;20059;-82
2023/07/20 10:33:22;;;;;;;3.20;2.50;;;;;;;21.95;nan;100458.06;4817630;29;20047;-80
2023/07/20 10:35:54;;;;;;;2.28;2.08;;;;;;;22.10;nan;100466.88;4784850;29;20043;-81
2023/07/20 10:38:40;;;;;;;1.50;1.40;;;;;;;22.21;nan;100466.16;4801819;29;20039;-80
2023/07/20 10:41:21;;;;;;;2.55;1.80;;;;;;;21.99;nan;100466.78;4812836;29;20530;-82
2023/07/20 10:43:49;;;;;;;2.33;2.00;;;;;;;21.75;nan;100475.59;4795367;29;20053;-81
2023/07/20 10:46:39;;;;;;;2.58;1.80;;;;;;;21.58;nan;100479.44;4802967;29;20053;-81
2023/07/20 10:49:09;;;;;;;3.70;3.40;;;;;;;21.42;nan;100469.88;4824783;29;20039;-80
2023/07/20 10:51:47;;;;;;;2.42;2.22;;;;;;;21.27;nan;100478.03;4797012;29;20500;-80
2023/07/20 10:54:17;;;;;;;1.80;1.70;;;;;;;21.27;nan;100466.38;4801840;29;20043;-80
2023/07/20 10:56:47;;;;;;;2.28;2.08;;;;;;;21.41;nan;100469.00;4804585;29;20043;-81
2023/07/20 10:59:24;;;;;;;1.67;1.40;;;;;;;21.52;nan;100469.13;4828967;29;20041;-81
2023/07/20 11:02:02;;;;;;;1.77;1.65;;;;;;;21.49;nan;100468.47;4830808;29;20055;-80
2023/07/20 11:04:39;;;;;;;2.38;1.88;;;;;;;21.60;nan;100476.66;4829640;29;20042;-81
2023/07/20 11:07:06;;;;;;;2.30;1.58;;;;;;;21.70;nan;100469.69;4828747;29;20054;-82
2023/07/20 11:09:34;;;;;;;2.25;1.50;;;;;;;21.85;nan;100473.13;4810200;29;20051;-82
2023/07/20 11:12:15;;;;;;;1.20;1.10;;;;;;;21.38;nan;100465.69;4819322;29;20049;-80
2023/07/20 11:14:56;;;;;;;1.90;1.40;;;;;;;21.67;nan;100477.97;4832855;29;20046;-79
2023/07/20 11:17:30;;;;;;;5.30;2.13;;;;;;;21.70;nan;100460.78;4818286;29;20045;-80
2023/07/20 11:20:00;;;;;;;2.92;1.20;;;;;;;21.68;nan;100460.84;4817148;29;20051;-82
2023/07/20 11:22:33;;;;;;;1.48;1.13;;;;;;;21.71;nan;100470.56;4828408;29;20545;-79
2023/07/20 11:25:01;;;;;;;1.20;1.08;;;;;;;21.63;nan;100461.19;4814497;29;20050;-79
2023/07/20 11:27:28;;;;;;;1.38;1.20;;;;;;;21.74;nan;100465.81;4824237;29;20043;-79
2023/07/20 11:29:56;;;;;;;1.40;1.10;;;;;;;21.91;nan;100454.72;4803273;29;20051;-80
2023/07/20 11:32:24;;;;;;;4.55;1.30;;;;;;;22.01;nan;100454.06;4809932;29;20692;-79
2023/07/20 11:34:51;;;;;;;1.38;1.25;;;;;;;22.06;nan;100460.00;4831529;29;20043;-80
2023/07/20 11:37:18;;;;;;;2.17;1.30;;;;;;;22.08;nan;100458.06;4789559;29;20051;-81
2023/07/20 11:39:45;;;;;;;1.17;1.08;;;;;;;22.21;nan;100460.75;4802187;29;20042;-81
2023/07/20 11:42:13;;;;;;;1.73;1.00;;;;;;;22.33;nan;100460.72;4796473;29;20051;-80
2023/07/20 11:45:04;;;;;;;2.15;1.10;;;;;;;22.36;nan;100463.19;4804099;29;20514;-80
2023/07/20 11:47:32;;;;;;;1.10;0.90;;;;;;;22.66;nan;100460.09;4804588;29;20385;-80
2023/07/20 11:50:03;;;;;;;1.08;0.90;;;;;;;22.88;nan;100451.31;4802637;29;20047;-80